sensor_id;sensor_type;location;lat;lon;timestamp;P1;durP1;ratioP1;P2;durP2;ratioP2
69034;SDS011;56091;55.756;37.412;2022-10-15T00:01:46;11.30;;;4.50;;
69034;SDS011;56091;55.756;37.412;2022-10-15T00:06:57;10.23;;;4.45;;
69034;SDS011;56091;55.756;37.412;2022-10-15T00:12:08;13.13;;;4.37;;
69034;SDS011;56091;55.756;37.412;2022-10-15T00:17:20;10.15;;;4.57;;
69034;SDS011;56091;55.756;37.412;2022-10-15T00:22:31;10.33;;;4.83;;
69034;SDS011;56091;55.756;37.412;2022-10-15T00:27:43;12.95;;;4.88;;
69034;SDS011;56091;55.756;37.412;2022-10-15T00:32:54;17.47;;;4.93;;
69034;SDS011;56091;55.756;37.412;2022-10-15T00:38:06;11.80;;;4.75;;
69034;SDS011;56091;55.756;37.412;2022-10-15T00:48:54;11.15;;;4.18;;
69034;SDS011;56091;55.756;37.412;2022-10-15T00:54:08;12.47;;;4.03;;
69034;SDS011;56091;55.756;37.412;2022-10-15T00:59:21;11.88;;;4.18;;
69034;SDS011;56091;55.756;37.412;2022-10-15T01:04:36;13.73;;;4.23;;
69034;SDS011;56091;55.756;37.412;2022-10-15T01:09:38;9.68;;;3.40;;
69034;SDS011;56091;55.756;37.412;2022-10-15T01:42:49;8.57;;;3.60;;
69034;SDS011;56091;55.756;37.412;2022-10-15T01:47:55;10.63;;;3.90;;
69034;SDS011;56091;55.756;37.412;2022-10-15T01:52:59;9.70;;;4.03;;
69034;SDS011;56091;55.756;37.412;2022-10-15T01:58:03;9.90;;;3.87;;
69034;SDS011;56091;55.756;37.412;2022-10-15T02:03:05;7.80;;;3.90;;
69034;SDS011;56091;55.756;37.412;2022-10-15T02:08:24;10.33;;;4.17;;
69034;SDS011;56091;55.756;37.412;2022-10-15T02:19:25;11.70;;;3.97;;
69034;SDS011;56091;55.756;37.412;2022-10-15T02:24:40;9.90;;;4.00;;
69034;SDS011;56091;55.756;37.412;2022-10-15T02:29:56;11.60;;;4.00;;
69034;SDS011;56091;55.756;37.412;2022-10-15T02:35:01;10.40;;;3.88;;
69034;SDS011;56091;55.756;37.412;2022-10-15T02:40:03;10.17;;;3.97;;
69034;SDS011;56091;55.756;37.412;2022-10-15T02:45:05;11.20;;;4.20;;
69034;SDS011;56091;55.756;37.412;2022-10-15T02:50:06;10.97;;;3.80;;
69034;SDS011;56091;55.756;37.412;2022-10-15T02:55:10;10.35;;;4.10;;
69034;SDS011;56091;55.756;37.412;2022-10-15T03:00:12;9.33;;;3.80;;
69034;SDS011;56091;55.756;37.412;2022-10-15T03:05:17;11.68;;;4.15;;
69034;SDS011;56091;55.756;37.412;2022-10-15T03:10:18;9.87;;;3.77;;
69034;SDS011;56091;55.756;37.412;2022-10-15T03:15:19;8.50;;;3.70;;
69034;SDS011;56091;55.756;37.412;2022-10-15T03:20:24;8.13;;;3.73;;
69034;SDS011;56091;55.756;37.412;2022-10-15T03:25:26;10.18;;;3.53;;
69034;SDS011;56091;55.756;37.412;2022-10-15T03:30:33;13.93;;;4.43;;
69034;SDS011;56091;55.756;37.412;2022-10-15T03:35:35;9.93;;;3.70;;
69034;SDS011;56091;55.756;37.412;2022-10-15T03:40:38;8.47;;;4.00;;
69034;SDS011;56091;55.756;37.412;2022-10-15T03:45:51;10.25;;;4.40;;
69034;SDS011;56091;55.756;37.412;2022-10-15T03:50:55;8.00;;;3.80;;
69034;SDS011;56091;55.756;37.412;2022-10-15T03:56:01;9.80;;;4.53;;
69034;SDS011;56091;55.756;37.412;2022-10-15T04:01:09;10.57;;;4.03;;
69034;SDS011;56091;55.756;37.412;2022-10-15T04:06:14;9.85;;;4.25;;
69034;SDS011;56091;55.756;37.412;2022-10-15T04:11:15;9.33;;;4.40;;
69034;SDS011;56091;55.756;37.412;2022-10-15T04:16:17;9.88;;;4.30;;
69034;SDS011;56091;55.756;37.412;2022-10-15T04:21:18;11.13;;;4.50;;
69034;SDS011;56091;55.756;37.412;2022-10-15T04:26:26;9.40;;;4.40;;
69034;SDS011;56091;55.756;37.412;2022-10-15T04:31:27;10.03;;;4.47;;
69034;SDS011;56091;55.756;37.412;2022-10-15T04:36:33;10.10;;;4.40;;
69034;SDS011;56091;55.756;37.412;2022-10-15T04:41:40;9.43;;;4.50;;
69034;SDS011;56091;55.756;37.412;2022-10-15T04:46:45;12.10;;;5.00;;
69034;SDS011;56091;55.756;37.412;2022-10-15T04:52:22;9.77;;;4.40;;
69034;SDS011;56091;55.756;37.412;2022-10-15T04:57:31;10.80;;;4.70;;
69034;SDS011;56091;55.756;37.412;2022-10-15T05:02:40;8.87;;;4.37;;
69034;SDS011;56091;55.756;37.412;2022-10-15T05:07:59;11.52;;;4.82;;
69034;SDS011;56091;55.756;37.412;2022-10-15T05:13:07;12.57;;;5.00;;
69034;SDS011;56091;55.756;37.412;2022-10-15T05:18:11;12.07;;;4.65;;
69034;SDS011;56091;55.756;37.412;2022-10-15T05:23:25;8.70;;;4.57;;
69034;SDS011;56091;55.756;37.412;2022-10-15T05:28:41;9.40;;;4.30;;
69034;SDS011;56091;55.756;37.412;2022-10-15T05:33:42;9.07;;;4.27;;
69034;SDS011;56091;55.756;37.412;2022-10-15T05:38:48;11.35;;;4.18;;
69034;SDS011;56091;55.756;37.412;2022-10-15T05:43:51;10.33;;;4.10;;
69034;SDS011;56091;55.756;37.412;2022-10-15T05:48:58;8.38;;;4.05;;
69034;SDS011;56091;55.756;37.412;2022-10-15T05:54:00;13.93;;;4.50;;
69034;SDS011;56091;55.756;37.412;2022-10-15T05:59:02;8.95;;;4.10;;
69034;SDS011;56091;55.756;37.412;2022-10-15T06:04:04;10.83;;;4.67;;
69034;SDS011;56091;55.756;37.412;2022-10-15T06:09:08;10.88;;;3.85;;
69034;SDS011;56091;55.756;37.412;2022-10-15T06:14:09;9.17;;;4.00;;
69034;SDS011;56091;55.756;37.412;2022-10-15T06:19:10;8.77;;;3.80;;
69034;SDS011;56091;55.756;37.412;2022-10-15T06:24:11;10.53;;;4.63;;
69034;SDS011;56091;55.756;37.412;2022-10-15T06:29:12;11.63;;;4.60;;
69034;SDS011;56091;55.756;37.412;2022-10-15T06:34:12;11.20;;;4.23;;
69034;SDS011;56091;55.756;37.412;2022-10-15T06:39:13;15.95;;;4.78;;
69034;SDS011;56091;55.756;37.412;2022-10-15T06:44:14;23.90;;;5.40;;
69034;SDS011;56091;55.756;37.412;2022-10-15T06:49:15;12.63;;;4.97;;
69034;SDS011;56091;55.756;37.412;2022-10-15T06:54:16;12.68;;;5.57;;
69034;SDS011;56091;55.756;37.412;2022-10-15T06:59:17;15.73;;;5.73;;
69034;SDS011;56091;55.756;37.412;2022-10-15T07:04:17;13.73;;;5.50;;
69034;SDS011;56091;55.756;37.412;2022-10-15T07:14:29;16.67;;;5.80;;
69034;SDS011;56091;55.756;37.412;2022-10-15T07:19:30;17.70;;;5.88;;
69034;SDS011;56091;55.756;37.412;2022-10-15T07:24:30;13.93;;;5.83;;
69034;SDS011;56091;55.756;37.412;2022-10-15T07:29:31;13.45;;;5.82;;
69034;SDS011;56091;55.756;37.412;2022-10-15T07:34:32;19.47;;;6.23;;
69034;SDS011;56091;55.756;37.412;2022-10-15T07:39:34;18.80;;;5.90;;
69034;SDS011;56091;55.756;37.412;2022-10-15T07:44:37;16.17;;;5.70;;
69034;SDS011;56091;55.756;37.412;2022-10-15T07:49:43;14.43;;;5.88;;
69034;SDS011;56091;55.756;37.412;2022-10-15T07:54:44;15.00;;;5.60;;
69034;SDS011;56091;55.756;37.412;2022-10-15T07:59:50;16.38;;;5.30;;
69034;SDS011;56091;55.756;37.412;2022-10-15T08:04:50;15.80;;;5.83;;
69034;SDS011;56091;55.756;37.412;2022-10-15T08:09:51;16.20;;;5.50;;
69034;SDS011;56091;55.756;37.412;2022-10-15T08:14:52;16.92;;;5.40;;
69034;SDS011;56091;55.756;37.412;2022-10-15T08:19:56;16.97;;;5.70;;
69034;SDS011;56091;55.756;37.412;2022-10-15T08:24:57;16.83;;;5.40;;
69034;SDS011;56091;55.756;37.412;2022-10-15T08:29:58;17.43;;;5.93;;
69034;SDS011;56091;55.756;37.412;2022-10-15T08:34:59;14.57;;;5.78;;
69034;SDS011;56091;55.756;37.412;2022-10-15T08:40:06;12.97;;;5.17;;
69034;SDS011;56091;55.756;37.412;2022-10-15T08:45:11;12.20;;;4.82;;
69034;SDS011;56091;55.756;37.412;2022-10-15T08:55:20;18.52;;;5.10;;
69034;SDS011;56091;55.756;37.412;2022-10-15T09:00:23;12.73;;;5.10;;
69034;SDS011;56091;55.756;37.412;2022-10-15T09:05:35;16.60;;;4.93;;
69034;SDS011;56091;55.756;37.412;2022-10-15T09:10:51;16.00;;;4.70;;
69034;SDS011;56091;55.756;37.412;2022-10-15T09:16:04;10.82;;;4.30;;
69034;SDS011;56091;55.756;37.412;2022-10-15T09:21:14;12.40;;;4.60;;
69034;SDS011;56091;55.756;37.412;2022-10-15T09:31:17;10.73;;;4.97;;
69034;SDS011;56091;55.756;37.412;2022-10-15T09:36:45;11.15;;;4.75;;
69034;SDS011;56091;55.756;37.412;2022-10-15T09:42:19;10.90;;;4.50;;
69034;SDS011;56091;55.756;37.412;2022-10-15T09:47:26;18.17;;;5.30;;
69034;SDS011;56091;55.756;37.412;2022-10-15T09:57:54;10.15;;;4.70;;
69034;SDS011;56091;55.756;37.412;2022-10-15T10:03:02;12.17;;;4.50;;
69034;SDS011;56091;55.756;37.412;2022-10-15T10:08:24;11.48;;;4.35;;
69034;SDS011;56091;55.756;37.412;2022-10-15T10:13:32;10.90;;;4.10;;
69034;SDS011;56091;55.756;37.412;2022-10-15T10:18:39;13.85;;;4.10;;
69034;SDS011;56091;55.756;37.412;2022-10-15T10:23:41;13.40;;;5.00;;
69034;SDS011;56091;55.756;37.412;2022-10-15T10:33:48;12.43;;;5.22;;
69034;SDS011;56091;55.756;37.412;2022-10-15T10:44:27;15.23;;;5.78;;
69034;SDS011;56091;55.756;37.412;2022-10-15T10:49:31;15.70;;;5.60;;
69034;SDS011;56091;55.756;37.412;2022-10-15T10:54:33;14.15;;;5.45;;
69034;SDS011;56091;55.756;37.412;2022-10-15T10:59:36;22.57;;;5.70;;
69034;SDS011;56091;55.756;37.412;2022-10-15T11:04:52;15.07;;;6.03;;
69034;SDS011;56091;55.756;37.412;2022-10-15T11:20:46;13.60;;;5.63;;
69034;SDS011;56091;55.756;37.412;2022-10-15T11:36:35;17.92;;;6.68;;
69034;SDS011;56091;55.756;37.412;2022-10-15T11:41:46;21.43;;;6.37;;
69034;SDS011;56091;55.756;37.412;2022-10-15T11:57:27;24.67;;;7.55;;
69034;SDS011;56091;55.756;37.412;2022-10-15T12:02:35;16.80;;;7.00;;
69034;SDS011;56091;55.756;37.412;2022-10-15T12:07:39;17.45;;;6.38;;
69034;SDS011;56091;55.756;37.412;2022-10-15T12:28:43;24.20;;;8.00;;
69034;SDS011;56091;55.756;37.412;2022-10-15T12:33:55;24.40;;;8.33;;
69034;SDS011;56091;55.756;37.412;2022-10-15T12:38:57;27.13;;;9.10;;
69034;SDS011;56091;55.756;37.412;2022-10-15T12:44:34;19.70;;;8.00;;
69034;SDS011;56091;55.756;37.412;2022-10-15T12:54:41;22.10;;;8.30;;
69034;SDS011;56091;55.756;37.412;2022-10-15T13:04:53;20.83;;;8.47;;
69034;SDS011;56091;55.756;37.412;2022-10-15T13:09:54;21.90;;;8.45;;
69034;SDS011;56091;55.756;37.412;2022-10-15T13:15:01;18.70;;;7.57;;
69034;SDS011;56091;55.756;37.412;2022-10-15T13:20:07;15.82;;;7.10;;
69034;SDS011;56091;55.756;37.412;2022-10-15T13:25:28;12.93;;;6.20;;
69034;SDS011;56091;55.756;37.412;2022-10-15T13:30:29;16.35;;;5.70;;
69034;SDS011;56091;55.756;37.412;2022-10-15T13:35:29;16.57;;;6.83;;
69034;SDS011;56091;55.756;37.412;2022-10-15T13:40:34;17.73;;;7.70;;
69034;SDS011;56091;55.756;37.412;2022-10-15T13:45:38;16.17;;;7.63;;
69034;SDS011;56091;55.756;37.412;2022-10-15T13:50:39;23.55;;;8.50;;
69034;SDS011;56091;55.756;37.412;2022-10-15T13:55:43;18.87;;;8.57;;
69034;SDS011;56091;55.756;37.412;2022-10-15T14:00:50;23.23;;;8.48;;
69034;SDS011;56091;55.756;37.412;2022-10-15T14:11:28;20.23;;;8.07;;
69034;SDS011;56091;55.756;37.412;2022-10-15T14:16:38;21.53;;;7.80;;
69034;SDS011;56091;55.756;37.412;2022-10-15T14:21:46;26.35;;;7.82;;
69034;SDS011;56091;55.756;37.412;2022-10-15T14:26:51;21.57;;;7.47;;
69034;SDS011;56091;55.756;37.412;2022-10-15T14:31:53;23.23;;;7.65;;
69034;SDS011;56091;55.756;37.412;2022-10-15T14:36:54;20.30;;;7.27;;
69034;SDS011;56091;55.756;37.412;2022-10-15T14:41:55;22.07;;;7.90;;
69034;SDS011;56091;55.756;37.412;2022-10-15T14:47:01;22.42;;;7.55;;
69034;SDS011;56091;55.756;37.412;2022-10-15T14:52:12;26.50;;;7.83;;
69034;SDS011;56091;55.756;37.412;2022-10-15T14:57:23;21.60;;;8.38;;
69034;SDS011;56091;55.756;37.412;2022-10-15T15:02:27;22.87;;;8.27;;
69034;SDS011;56091;55.756;37.412;2022-10-15T15:07:29;27.38;;;9.05;;
69034;SDS011;56091;55.756;37.412;2022-10-15T15:12:36;24.23;;;8.53;;
69034;SDS011;56091;55.756;37.412;2022-10-15T15:17:38;24.25;;;8.68;;
69034;SDS011;56091;55.756;37.412;2022-10-15T15:22:39;23.27;;;8.30;;
69034;SDS011;56091;55.756;37.412;2022-10-15T15:27:42;18.73;;;7.53;;
69034;SDS011;56091;55.756;37.412;2022-10-15T15:32:43;19.10;;;7.40;;
69034;SDS011;56091;55.756;37.412;2022-10-15T15:42:52;23.47;;;7.87;;
69034;SDS011;56091;55.756;37.412;2022-10-15T15:47:53;17.33;;;7.73;;
69034;SDS011;56091;55.756;37.412;2022-10-15T15:52:58;21.35;;;7.82;;
69034;SDS011;56091;55.756;37.412;2022-10-15T15:57:59;26.03;;;8.13;;
69034;SDS011;56091;55.756;37.412;2022-10-15T16:03:00;25.05;;;8.90;;
69034;SDS011;56091;55.756;37.412;2022-10-15T16:08:01;18.87;;;8.50;;
69034;SDS011;56091;55.756;37.412;2022-10-15T16:13:04;19.30;;;8.15;;
69034;SDS011;56091;55.756;37.412;2022-10-15T16:18:05;23.60;;;8.90;;
69034;SDS011;56091;55.756;37.412;2022-10-15T16:23:06;19.48;;;8.05;;
69034;SDS011;56091;55.756;37.412;2022-10-15T16:28:07;23.70;;;8.77;;
69034;SDS011;56091;55.756;37.412;2022-10-15T16:33:08;20.70;;;8.40;;
69034;SDS011;56091;55.756;37.412;2022-10-15T16:38:09;21.77;;;8.80;;
69034;SDS011;56091;55.756;37.412;2022-10-15T16:43:12;20.25;;;8.75;;
69034;SDS011;56091;55.756;37.412;2022-10-15T16:48:13;21.07;;;8.77;;
69034;SDS011;56091;55.756;37.412;2022-10-15T16:53:14;23.43;;;9.23;;
69034;SDS011;56091;55.756;37.412;2022-10-15T16:58:15;21.45;;;8.65;;
69034;SDS011;56091;55.756;37.412;2022-10-15T17:03:15;23.87;;;9.90;;
69034;SDS011;56091;55.756;37.412;2022-10-15T17:08:16;22.45;;;9.52;;
69034;SDS011;56091;55.756;37.412;2022-10-15T17:13:17;21.50;;;9.57;;
69034;SDS011;56091;55.756;37.412;2022-10-15T17:18:19;22.40;;;9.77;;
69034;SDS011;56091;55.756;37.412;2022-10-15T17:23:20;25.42;;;9.82;;
69034;SDS011;56091;55.756;37.412;2022-10-15T17:28:21;20.37;;;9.23;;
69034;SDS011;56091;55.756;37.412;2022-10-15T17:33:21;25.17;;;9.87;;
69034;SDS011;56091;55.756;37.412;2022-10-15T17:38:22;25.38;;;9.73;;
69034;SDS011;56091;55.756;37.412;2022-10-15T17:43:23;19.43;;;9.07;;
69034;SDS011;56091;55.756;37.412;2022-10-15T17:48:24;23.80;;;9.25;;
69034;SDS011;56091;55.756;37.412;2022-10-15T17:53:26;22.17;;;9.37;;
69034;SDS011;56091;55.756;37.412;2022-10-15T17:58:27;22.98;;;9.07;;
69034;SDS011;56091;55.756;37.412;2022-10-15T18:03:28;22.48;;;9.80;;
69034;SDS011;56091;55.756;37.412;2022-10-15T18:08:29;19.07;;;9.27;;
69034;SDS011;56091;55.756;37.412;2022-10-15T18:13:30;24.08;;;9.07;;
69034;SDS011;56091;55.756;37.412;2022-10-15T18:18:31;17.40;;;8.33;;
69034;SDS011;56091;55.756;37.412;2022-10-15T18:23:32;20.05;;;8.95;;
69034;SDS011;56091;55.756;37.412;2022-10-15T18:28:33;19.67;;;8.43;;
69034;SDS011;56091;55.756;37.412;2022-10-15T18:33:37;17.65;;;7.80;;
69034;SDS011;56091;55.756;37.412;2022-10-15T18:38:43;17.17;;;7.33;;
69034;SDS011;56091;55.756;37.412;2022-10-15T18:44:05;17.95;;;8.05;;
69034;SDS011;56091;55.756;37.412;2022-10-15T18:49:07;18.03;;;7.33;;
69034;SDS011;56091;55.756;37.412;2022-10-15T18:54:08;17.60;;;7.40;;
69034;SDS011;56091;55.756;37.412;2022-10-15T18:59:11;14.50;;;7.25;;
69034;SDS011;56091;55.756;37.412;2022-10-15T19:04:13;16.43;;;7.33;;
69034;SDS011;56091;55.756;37.412;2022-10-15T19:09:19;18.30;;;7.18;;
69034;SDS011;56091;55.756;37.412;2022-10-15T19:14:23;18.63;;;7.57;;
69034;SDS011;56091;55.756;37.412;2022-10-15T19:19:27;16.63;;;7.13;;
69034;SDS011;56091;55.756;37.412;2022-10-15T19:24:30;18.97;;;7.37;;
69034;SDS011;56091;55.756;37.412;2022-10-15T19:29:31;18.02;;;7.43;;
69034;SDS011;56091;55.756;37.412;2022-10-15T19:34:32;13.77;;;6.60;;
69034;SDS011;56091;55.756;37.412;2022-10-15T19:39:34;23.35;;;7.03;;
69034;SDS011;56091;55.756;37.412;2022-10-15T19:44:35;16.03;;;6.63;;
69034;SDS011;56091;55.756;37.412;2022-10-15T19:49:37;19.00;;;7.30;;
69034;SDS011;56091;55.756;37.412;2022-10-15T19:54:37;19.08;;;6.97;;
69034;SDS011;56091;55.756;37.412;2022-10-15T19:59:38;13.83;;;5.73;;
69034;SDS011;56091;55.756;37.412;2022-10-15T20:04:39;13.93;;;5.90;;
69034;SDS011;56091;55.756;37.412;2022-10-15T20:09:40;15.90;;;6.23;;
69034;SDS011;56091;55.756;37.412;2022-10-15T20:14:41;13.70;;;5.78;;
69034;SDS011;56091;55.756;37.412;2022-10-15T20:19:41;12.18;;;5.85;;
69034;SDS011;56091;55.756;37.412;2022-10-15T20:24:42;14.50;;;5.80;;
69034;SDS011;56091;55.756;37.412;2022-10-15T20:29:43;13.00;;;5.78;;
69034;SDS011;56091;55.756;37.412;2022-10-15T20:34:44;15.40;;;5.90;;
69034;SDS011;56091;55.756;37.412;2022-10-15T20:39:44;13.73;;;5.53;;
69034;SDS011;56091;55.756;37.412;2022-10-15T20:44:45;13.25;;;4.95;;
69034;SDS011;56091;55.756;37.412;2022-10-15T20:49:53;12.57;;;5.33;;
69034;SDS011;56091;55.756;37.412;2022-10-15T20:54:54;12.13;;;5.10;;
69034;SDS011;56091;55.756;37.412;2022-10-15T20:59:55;11.10;;;4.80;;
69034;SDS011;56091;55.756;37.412;2022-10-15T21:04:56;12.30;;;5.03;;
69034;SDS011;56091;55.756;37.412;2022-10-15T21:09:57;11.73;;;5.23;;
69034;SDS011;56091;55.756;37.412;2022-10-15T21:14:58;12.70;;;4.45;;
69034;SDS011;56091;55.756;37.412;2022-10-15T21:19:59;13.03;;;4.30;;
69034;SDS011;56091;55.756;37.412;2022-10-15T21:25:00;9.23;;;3.80;;
69034;SDS011;56091;55.756;37.412;2022-10-15T21:30:01;9.23;;;4.07;;
69034;SDS011;56091;55.756;37.412;2022-10-15T21:35:03;10.50;;;4.20;;
69034;SDS011;56091;55.756;37.412;2022-10-15T21:40:05;9.40;;;3.80;;
69034;SDS011;56091;55.756;37.412;2022-10-15T21:45:07;8.37;;;3.40;;
69034;SDS011;56091;55.756;37.412;2022-10-15T21:50:08;9.73;;;3.70;;
69034;SDS011;56091;55.756;37.412;2022-10-15T21:55:09;11.93;;;4.07;;
69034;SDS011;56091;55.756;37.412;2022-10-15T22:00:12;9.07;;;4.22;;
69034;SDS011;56091;55.756;37.412;2022-10-15T22:05:17;9.10;;;3.80;;
69034;SDS011;56091;55.756;37.412;2022-10-15T22:10:32;10.02;;;3.58;;
69034;SDS011;56091;55.756;37.412;2022-10-15T22:15:34;9.07;;;3.83;;
69034;SDS011;56091;55.756;37.412;2022-10-15T22:20:35;12.93;;;3.85;;
69034;SDS011;56091;55.756;37.412;2022-10-15T22:25:35;11.63;;;4.27;;
69034;SDS011;56091;55.756;37.412;2022-10-15T22:30:36;10.00;;;3.97;;
69034;SDS011;56091;55.756;37.412;2022-10-15T22:35:37;10.35;;;4.15;;
69034;SDS011;56091;55.756;37.412;2022-10-15T22:40:38;11.80;;;3.80;;
69034;SDS011;56091;55.756;37.412;2022-10-15T22:45:39;9.23;;;4.05;;
69034;SDS011;56091;55.756;37.412;2022-10-15T22:50:40;11.90;;;4.00;;
69034;SDS011;56091;55.756;37.412;2022-10-15T22:55:40;11.20;;;4.10;;
69034;SDS011;56091;55.756;37.412;2022-10-15T23:00:42;11.05;;;4.50;;
69034;SDS011;56091;55.756;37.412;2022-10-15T23:05:49;10.13;;;3.83;;
69034;SDS011;56091;55.756;37.412;2022-10-15T23:10:54;12.60;;;4.10;;
69034;SDS011;56091;55.756;37.412;2022-10-15T23:16:03;11.25;;;4.32;;
69034;SDS011;56091;55.756;37.412;2022-10-15T23:21:28;11.20;;;4.28;;
69034;SDS011;56091;55.756;37.412;2022-10-15T23:26:35;11.25;;;4.70;;
69034;SDS011;56091;55.756;37.412;2022-10-15T23:31:37;10.88;;;4.20;;
69034;SDS011;56091;55.756;37.412;2022-10-15T23:36:38;10.98;;;4.20;;
69034;SDS011;56091;55.756;37.412;2022-10-15T23:41:39;9.57;;;4.55;;
69034;SDS011;56091;55.756;37.412;2022-10-15T23:46:40;10.93;;;4.13;;
69034;SDS011;56091;55.756;37.412;2022-10-15T23:51:41;10.90;;;4.50;;
69034;SDS011;56091;55.756;37.412;2022-10-15T23:56:43;8.63;;;4.40;;
